Time;durP1;ratioP1;P1;durP2;ratioP2;P2;SDS_P1;SDS_P2;PMS_P1;PMS_P2;Temp;Humidity;BMP_temperature;BMP_pressure;BME280_temperature;BME280_humidity;BME280_pressure;Samples;Min_cycle;Max_cycle;Signal;HPM_P1;HPM_P2
2021/08/21 00:00:27;;;;;;;32.15;18.70;;;;;;;14.92;91.30;101998.16;5050101;28;20029;-65
2021/08/21 00:02:52;;;;;;;37.38;20.08;;;;;;;14.91;91.39;101988.41;5051040;28;20056;-66
2021/08/21 00:05:18;;;;;;;35.25;17.95;;;;;;;14.89;91.45;101988.50;5049273;28;20455;-66
2021/08/21 00:07:44;;;;;;;32.10;18.13;;;;;;;14.89;91.30;101990.31;5051204;28;20032;-66
2021/08/21 00:10:11;;;;;;;30.63;18.20;;;;;;;14.86;91.16;101988.66;5051176;28;20033;-66
2021/08/21 00:12:37;;;;;;;36.08;20.00;;;;;;;14.83;91.22;101977.25;5048894;28;20040;-66
2021/08/21 00:15:06;;;;;;;35.58;20.13;;;;;;;14.80;91.49;101978.25;5050050;28;20025;-65
2021/08/21 00:17:32;;;;;;;35.38;19.13;;;;;;;14.80;91.72;101980.06;5050528;28;20056;-66
2021/08/21 00:19:57;;;;;;;37.70;20.40;;;;;;;14.82;92.03;101980.84;5050777;28;20100;-67
2021/08/21 00:22:22;;;;;;;36.58;21.20;;;;;;;14.85;91.89;101978.06;5051317;28;20036;-67
2021/08/21 00:24:48;;;;;;;35.28;19.92;;;;;;;14.83;91.92;101974.59;5052579;28;20040;-67
2021/08/21 00:27:13;;;;;;;38.92;20.20;;;;;;;14.82;91.76;101984.41;5050802;28;20037;-67
2021/08/21 00:29:39;;;;;;;38.97;20.52;;;;;;;14.83;92.08;101974.59;5052295;28;20033;-67
2021/08/21 00:32:05;;;;;;;39.53;21.20;;;;;;;14.80;92.05;101974.72;5050720;28;20159;-67
2021/08/21 00:34:31;;;;;;;38.90;20.42;;;;;;;14.77;92.13;101975.72;5052220;28;20063;-67
2021/08/21 00:36:56;;;;;;;38.03;21.00;;;;;;;14.74;91.96;101978.50;5050631;28;20028;-67
2021/08/21 00:39:21;;;;;;;34.25;19.08;;;;;;;14.72;91.94;101973.25;5051380;28;20540;-67
2021/08/21 00:41:47;;;;;;;39.00;21.70;;;;;;;14.76;91.84;101971.31;5051994;28;20028;-67
2021/08/21 00:44:12;;;;;;;39.60;21.05;;;;;;;14.76;92.03;101974.00;5049850;28;20032;-66
2021/08/21 00:47:04;;;;;;;34.03;20.20;;;;;;;14.73;91.72;101971.44;5049639;28;20044;-66
2021/08/21 00:49:29;;;;;;;41.92;21.27;;;;;;;14.70;91.84;101960.94;5051311;28;20032;-66
2021/08/21 00:51:55;;;;;;;40.50;20.70;;;;;;;14.70;91.85;101966.25;5052523;28;20124;-67
2021/08/21 00:54:21;;;;;;;39.10;20.90;;;;;;;14.70;91.42;101961.78;5050635;28;20053;-66
2021/08/21 00:56:46;;;;;;;39.15;21.33;;;;;;;14.68;91.29;101957.47;5051226;28;20067;-67
2021/08/21 00:59:12;;;;;;;41.83;21.45;;;;;;;14.64;91.91;101963.84;5049584;28;20052;-66
2021/08/21 01:01:38;;;;;;;40.33;19.38;;;;;;;14.65;92.10;101963.78;5049907;28;20037;-66
2021/08/21 01:04:04;;;;;;;35.97;18.73;;;;;;;14.66;92.25;101964.69;5047148;28;20029;-66
2021/08/21 01:06:30;;;;;;;48.55;23.17;;;;;;;14.68;92.42;101966.34;5047409;28;20040;-66
2021/08/21 01:08:55;;;;;;;43.10;23.10;;;;;;;14.68;92.52;101962.78;5049902;28;20033;-66
2021/08/21 01:11:21;;;;;;;34.67;18.17;;;;;;;14.63;91.78;101962.09;5049592;28;20032;-66
2021/08/21 01:13:46;;;;;;;37.72;19.65;;;;;;;14.56;91.92;101958.84;5035040;28;20520;-66
2021/08/21 01:16:12;;;;;;;40.78;21.10;;;;;;;14.52;91.98;101957.25;5031710;28;20439;-66
2021/08/21 01:18:38;;;;;;;32.72;18.05;;;;;;;14.51;92.39;101961.69;5031392;28;20452;-67
2021/08/21 01:21:05;;;;;;;38.13;20.15;;;;;;;14.51;92.30;101956.34;5031567;28;20017;-67
2021/08/21 01:23:30;;;;;;;38.05;20.33;;;;;;;14.52;92.60;101960.75;5032785;28;20033;-67
2021/08/21 01:25:55;;;;;;;38.45;20.25;;;;;;;14.52;92.56;101959.91;5032796;28;20040;-66
2021/08/21 01:28:21;;;;;;;31.13;17.90;;;;;;;14.48;92.08;101953.00;5031463;28;20036;-66
2021/08/21 01:30:46;;;;;;;35.63;18.73;;;;;;;14.44;91.88;101957.59;5031461;28;20025;-66
2021/08/21 01:33:11;;;;;;;37.20;20.33;;;;;;;14.40;92.06;101956.00;5032380;28;20028;-67
2021/08/21 01:35:36;;;;;;;41.38;20.38;;;;;;;14.36;92.10;101957.03;5032481;28;20496;-67
2021/08/21 01:38:02;;;;;;;33.83;18.33;;;;;;;14.34;92.18;101948.25;5031324;28;20038;-67
2021/08/21 01:40:27;;;;;;;42.25;21.23;;;;;;;14.33;92.27;101951.84;5032174;28;20454;-67
2021/08/21 01:42:53;;;;;;;39.05;20.83;;;;;;;14.33;92.64;101960.69;5031472;28;20378;-66
2021/08/21 01:45:18;;;;;;;38.20;20.52;;;;;;;14.30;92.53;101955.50;5032067;28;20148;-66
2021/08/21 01:47:44;;;;;;;43.75;21.23;;;;;;;14.32;92.60;101956.31;5032378;28;20109;-67
2021/08/21 01:50:17;;;;;;;38.97;20.83;;;;;;;14.34;92.71;101957.09;5031914;28;20465;-67
2021/08/21 01:52:47;;;;;;;32.17;18.40;;;;;;;14.38;92.60;101960.50;5035106;28;20404;-67
2021/08/21 01:55:13;;;;;;;34.13;17.98;;;;;;;14.47;92.62;101965.44;5036255;28;20025;-67
2021/08/21 01:57:39;;;;;;;36.30;17.58;;;;;;;14.54;92.01;101955.34;5036318;28;20037;-67
2021/08/21 02:00:05;;;;;;;34.08;18.95;;;;;;;14.55;91.58;101957.97;5034749;28;20025;-67
2021/08/21 02:02:31;;;;;;;31.20;16.65;;;;;;;14.56;91.59;101961.50;5035981;28;20108;-67
2021/08/21 02:04:56;;;;;;;30.77;17.08;;;;;;;14.59;91.43;101956.03;5034968;28;20033;-67
2021/08/21 02:07:21;;;;;;;33.42;18.73;;;;;;;14.59;91.18;101959.56;5035007;28;20029;-67
2021/08/21 02:09:47;;;;;;;32.78;17.58;;;;;;;14.61;91.27;101955.97;5042186;28;20075;-66
2021/08/21 02:12:15;;;;;;;33.38;18.45;;;;;;;14.62;91.21;101963.06;5053256;28;20064;-66
2021/08/21 02:14:40;;;;;;;33.85;18.35;;;;;;;14.57;91.60;101955.25;5051071;28;20025;-66
2021/08/21 02:17:07;;;;;;;32.22;17.73;;;;;;;14.59;91.76;101956.03;5054293;28;20503;-67
2021/08/21 02:19:32;;;;;;;32.72;18.05;;;;;;;14.56;91.94;101957.03;5052620;28;20040;-67
2021/08/21 02:22:00;;;;;;;34.22;18.02;;;;;;;14.56;91.66;101958.84;5054569;28;20028;-67
2021/08/21 02:24:25;;;;;;;32.53;17.05;;;;;;;14.55;91.49;101950.00;5051417;28;20021;-67
2021/08/21 02:26:57;;;;;;;29.80;17.55;;;;;;;14.51;91.20;101955.50;5042659;28;20518;-66
2021/08/21 02:29:23;;;;;;;36.85;18.88;;;;;;;14.45;91.40;101956.66;5053122;28;20029;-67
2021/08/21 02:31:48;;;;;;;33.00;18.25;;;;;;;14.43;91.38;101959.34;5053332;28;20108;-66
2021/08/21 02:34:13;;;;;;;32.72;17.65;;;;;;;14.40;91.38;101950.66;5052350;28;20044;-67
2021/08/21 02:36:40;;;;;;;28.67;17.10;;;;;;;14.38;91.66;101958.69;5054334;28;20036;-67
2021/08/21 02:39:05;;;;;;;33.13;18.58;;;;;;;14.38;91.78;101949.84;5054481;28;20056;-67
2021/08/21 02:41:31;;;;;;;36.78;18.13;;;;;;;14.37;91.90;101946.31;5052718;28;20447;-66
2021/08/21 02:43:56;;;;;;;42.30;20.70;;;;;;;14.35;92.08;101958.84;5054790;28;20036;-65
2021/08/21 02:46:21;;;;;;;37.35;19.17;;;;;;;14.35;92.21;101947.31;5052185;28;20040;-67
2021/08/21 02:48:47;;;;;;;37.97;20.25;;;;;;;14.35;91.95;101947.31;5053970;28;20147;-66
2021/08/21 02:51:12;;;;;;;39.55;20.45;;;;;;;14.35;92.42;101952.66;5052415;28;20035;-66
2021/08/21 02:53:38;;;;;;;37.65;19.88;;;;;;;14.35;92.33;101942.00;5054247;28;20092;-68
2021/08/21 02:56:03;;;;;;;38.95;19.25;;;;;;;14.30;92.33;101946.66;5052332;28;20056;-67
2021/08/21 02:58:29;;;;;;;33.25;18.33;;;;;;;14.27;92.14;101939.63;5054252;28;20037;-66
2021/08/21 03:00:54;;;;;;;42.40;20.55;;;;;;;14.22;92.33;101936.31;5050525;28;20053;-66
2021/08/21 03:03:19;;;;;;;37.22;19.35;;;;;;;14.23;92.35;101940.69;5052918;28;20025;-67
2021/08/21 03:05:45;;;;;;;36.53;19.67;;;;;;;14.19;92.62;101923.97;5052264;28;20037;-67
2021/08/21 03:08:10;;;;;;;36.40;19.52;;;;;;;14.18;92.70;101932.94;5054164;28;20037;-67
2021/08/21 03:10:36;;;;;;;42.03;21.00;;;;;;;14.16;92.72;101934.78;5054025;28;20512;-67
2021/08/21 03:13:02;;;;;;;39.97;20.92;;;;;;;14.18;92.83;101940.03;5052278;28;20397;-67
2021/08/21 03:15:28;;;;;;;45.58;22.45;;;;;;;14.18;92.99;101934.72;5054141;28;20052;-67
2021/08/21 03:17:55;;;;;;;42.72;21.10;;;;;;;14.21;93.13;101942.59;5051336;28;20099;-66
2021/08/21 03:20:20;;;;;;;45.20;22.75;;;;;;;14.22;93.21;101937.19;5052251;28;20380;-66
2021/08/21 03:22:46;;;;;;;43.70;21.80;;;;;;;14.29;93.04;101932.44;5050199;28;20017;-66
2021/08/21 03:25:11;;;;;;;38.55;20.15;;;;;;;14.35;93.10;101944.66;5052121;28;20035;-66
2021/08/21 03:27:37;;;;;;;42.80;21.58;;;;;;;14.40;93.17;101932.00;5043924;28;20316;-66
2021/08/21 03:30:04;;;;;;;38.88;21.20;;;;;;;14.44;93.21;101936.25;5032492;28;20040;-66
2021/08/21 03:32:29;;;;;;;43.22;22.55;;;;;;;14.48;93.28;101932.53;5033030;28;20022;-67
2021/08/21 03:34:55;;;;;;;45.63;22.30;;;;;;;14.52;93.08;101930.59;5033808;28;20083;-66
2021/08/21 03:37:20;;;;;;;48.97;24.80;;;;;;;14.52;93.04;101930.59;5032986;28;20032;-66
2021/08/21 03:39:46;;;;;;;42.03;22.15;;;;;;;14.53;92.94;101927.84;5032029;28;20108;-65
2021/08/21 03:42:11;;;;;;;43.05;22.98;;;;;;;14.55;92.82;101931.31;5031900;28;20093;-65
2021/08/21 03:44:37;;;;;;;51.40;23.88;;;;;;;14.58;92.94;101939.19;5032716;28;20453;-66
2021/08/21 03:47:02;;;;;;;47.42;23.83;;;;;;;14.61;92.90;101940.00;5031854;28;20029;-66
2021/08/21 03:49:27;;;;;;;51.60;25.55;;;;;;;14.62;92.71;101933.72;5027367;28;20083;-65
2021/08/21 03:51:53;;;;;;;47.42;23.83;;;;;;;14.67;92.65;101934.41;5022205;28;20026;-63
2021/08/21 03:54:18;;;;;;;45.67;24.35;;;;;;;14.67;92.85;101919.28;5020675;28;20109;-65
2021/08/21 03:56:43;;;;;;;51.10;25.83;;;;;;;14.69;92.62;101924.53;5031624;28;20033;-66
2021/08/21 03:59:09;;;;;;;53.58;26.90;;;;;;;14.66;92.67;101922.88;5032325;28;20036;-66
2021/08/21 04:01:34;;;;;;;52.53;26.73;;;;;;;14.65;92.71;101920.28;5031584;28;20441;-66
2021/08/21 04:04:00;;;;;;;54.83;27.00;;;;;;;14.64;92.74;101929.19;5030876;28;20037;-66
2021/08/21 04:06:25;;;;;;;61.05;28.10;;;;;;;14.61;92.67;101932.00;5046503;28;20044;-66
2021/08/21 04:08:51;;;;;;;58.58;28.58;;;;;;;14.59;92.78;101926.69;5049424;28;20108;-65
2021/08/21 04:11:16;;;;;;;63.10;30.25;;;;;;;14.59;92.89;101919.59;5049425;28;20380;-65
2021/08/21 04:13:41;;;;;;;64.47;30.73;;;;;;;14.56;92.81;101925.03;5050771;28;20104;-66
2021/08/21 04:16:07;;;;;;;64.90;30.55;;;;;;;14.56;93.00;101926.84;5049149;28;20035;-65
2021/08/21 04:18:32;;;;;;;62.30;29.05;;;;;;;14.55;93.25;101931.31;5050605;28;20534;-66
2021/08/21 04:20:58;;;;;;;72.25;32.63;;;;;;;14.57;93.16;101928.59;5031244;28;20398;-64
2021/08/21 04:23:24;;;;;;;71.28;29.02;;;;;;;14.61;93.32;101927.50;5032297;28;20053;-66
2021/08/21 04:25:49;;;;;;;66.30;30.95;;;;;;;14.67;93.48;101927.28;5032964;28;20382;-67
2021/08/21 04:28:14;;;;;;;56.95;27.65;;;;;;;14.73;93.43;101927.00;5030985;28;20044;-65
2021/08/21 04:30:40;;;;;;;64.45;30.60;;;;;;;14.76;93.00;101931.34;5031718;28;20095;-66
2021/08/21 04:33:05;;;;;;;65.68;33.47;;;;;;;14.78;93.50;101925.94;5031990;28;20496;-67
2021/08/21 04:35:31;;;;;;;69.28;33.13;;;;;;;14.84;93.64;101926.50;5031612;28;20026;-67
2021/08/21 04:37:57;;;;;;;67.45;32.03;;;;;;;14.88;93.31;101922.75;5032696;28;20073;-67
2021/08/21 04:40:23;;;;;;;66.18;32.85;;;;;;;14.93;93.34;101925.22;5032348;28;20109;-66
2021/08/21 04:42:48;;;;;;;72.47;34.17;;;;;;;14.98;93.43;101925.88;5031790;28;20418;-64
2021/08/21 04:45:13;;;;;;;70.43;32.47;;;;;;;15.09;93.80;101917.41;5031551;28;20530;-67
2021/08/21 04:47:39;;;;;;;74.90;33.90;;;;;;;15.12;93.69;101924.38;5030903;28;20021;-67
2021/08/21 04:50:05;;;;;;;67.13;32.38;;;;;;;15.08;93.25;101921.84;5030759;28;20109;-67
2021/08/21 04:52:31;;;;;;;77.85;35.95;;;;;;;15.13;93.48;101932.31;5030123;28;20509;-67
2021/08/21 04:54:57;;;;;;;74.63;35.65;;;;;;;15.18;93.66;101930.28;5030185;28;20030;-66
2021/08/21 04:57:22;;;;;;;75.53;36.13;;;;;;;15.22;93.75;101931.88;5030064;28;20389;-65
2021/08/21 04:59:48;;;;;;;74.38;36.15;;;;;;;15.24;93.41;101937.13;5030923;28;20029;-65
2021/08/21 05:02:13;;;;;;;75.30;34.20;;;;;;;15.26;93.41;101940.59;5030875;28;20385;-64
2021/08/21 05:04:39;;;;;;;67.32;31.65;;;;;;;15.30;93.77;101939.50;5029237;28;20404;-65
2021/08/21 05:07:04;;;;;;;71.68;33.42;;;;;;;15.32;93.39;101932.31;5029222;28;20025;-66
2021/08/21 05:09:29;;;;;;;72.60;35.13;;;;;;;15.34;93.17;101930.41;5031666;28;20037;-67
2021/08/21 05:11:55;;;;;;;68.57;32.95;;;;;;;15.37;92.96;101940.09;5031848;28;20037;-65
2021/08/21 05:14:20;;;;;;;71.30;32.92;;;;;;;15.38;93.05;101936.47;5043917;28;20041;-66
2021/08/21 05:16:49;;;;;;;71.65;33.60;;;;;;;15.41;93.16;101941.69;5050323;28;20049;-66
2021/08/21 05:21:55;;;;;;;67.20;31.60;;;;;;;15.47;93.16;101941.38;5021144;28;20040;-64
2021/08/21 05:24:21;;;;;;;67.40;32.92;;;;;;;15.47;92.92;101940.53;5027600;28;20048;-65
2021/08/21 05:26:50;;;;;;;66.60;32.15;;;;;;;15.45;92.59;101940.59;5024825;28;20108;-66
2021/08/21 05:29:17;;;;;;;67.20;31.70;;;;;;;15.42;92.56;101935.38;5031172;28;20032;-66
2021/08/21 05:31:42;;;;;;;59.47;30.42;;;;;;;15.41;92.51;101941.69;5032193;28;20099;-66
2021/08/21 05:34:13;;;;;;;66.55;31.67;;;;;;;15.38;92.77;101947.16;5031367;28;20458;-66
2021/08/21 05:36:38;;;;;;;66.50;31.33;;;;;;;15.36;92.82;101946.38;5030894;28;20029;-66
2021/08/21 05:39:07;;;;;;;75.55;35.28;;;;;;;15.38;92.83;101945.38;5029200;28;20095;-65
2021/08/21 05:41:32;;;;;;;69.47;33.40;;;;;;;15.45;92.90;101947.72;5031607;28;20098;-65
2021/08/21 05:43:57;;;;;;;67.47;32.90;;;;;;;15.52;93.00;101944.69;5028409;28;20458;-65
2021/08/21 05:46:23;;;;;;;75.05;33.17;;;;;;;15.61;92.85;101945.19;5029778;28;20048;-63
2021/08/21 05:48:48;;;;;;;72.95;32.22;;;;;;;15.72;92.53;101943.72;5041490;28;20460;-65
2021/08/21 05:51:13;;;;;;;62.00;31.70;;;;;;;15.84;92.34;101942.31;5029181;28;20068;-65
2021/08/21 05:53:39;;;;;;;61.10;31.48;;;;;;;15.91;92.17;101956.22;5029755;28;20334;-65
2021/08/21 05:56:04;;;;;;;65.63;31.38;;;;;;;15.96;91.74;101948.84;5029859;28;20029;-65
2021/08/21 05:58:29;;;;;;;62.63;31.67;;;;;;;16.03;91.92;101944.06;5029138;28;20378;-64
2021/08/21 06:00:55;;;;;;;64.57;30.25;;;;;;;16.14;91.31;101947.06;5028929;28;20087;-66
2021/08/21 06:03:20;;;;;;;59.72;30.73;;;;;;;16.23;91.06;101948.41;5029546;28;20036;-67
2021/08/21 06:05:46;;;;;;;56.22;29.77;;;;;;;16.34;90.88;101950.50;5036560;28;20021;-65
2021/08/21 06:08:11;;;;;;;53.85;28.45;;;;;;;16.47;90.40;101945.38;5049201;28;20341;-65
2021/08/21 06:10:38;;;;;;;52.22;28.75;;;;;;;16.59;89.95;101947.41;5048920;28;20108;-65
2021/08/21 06:13:03;;;;;;;51.40;27.92;;;;;;;16.69;89.33;101943.31;5048264;28;20035;-65
2021/08/21 06:15:29;;;;;;;49.97;27.45;;;;;;;16.78;88.84;101949.13;5041067;28;20380;-66
2021/08/21 06:17:54;;;;;;;46.80;26.70;;;;;;;16.85;88.58;101951.41;5028863;28;20053;-65
2021/08/21 06:20:19;;;;;;;53.03;28.02;;;;;;;16.91;88.37;101944.88;5032627;28;20036;-66
2021/08/21 06:22:44;;;;;;;49.50;27.73;;;;;;;16.99;88.32;101947.13;5028829;28;20141;-66
2021/08/21 06:25:10;;;;;;;47.47;26.35;;;;;;;17.08;87.52;101953.81;5029381;28;20082;-66
2021/08/21 06:27:36;;;;;;;49.35;25.80;;;;;;;17.19;86.68;101954.06;5017588;28;20022;-65
2021/08/21 06:30:03;;;;;;;47.17;27.30;;;;;;;17.21;86.33;101952.16;5025727;28;20460;-65
2021/08/21 06:32:28;;;;;;;46.88;26.02;;;;;;;17.25;85.93;101952.84;5029335;28;20063;-67
2021/08/21 06:34:54;;;;;;;46.38;24.80;;;;;;;17.29;85.50;101960.66;5022913;28;20322;-65
2021/08/21 06:37:19;;;;;;;43.40;25.50;;;;;;;17.34;85.73;101953.22;5025059;28;20026;-66
2021/08/21 06:39:44;;;;;;;43.90;25.48;;;;;;;17.43;85.65;101953.66;5031440;28;20030;-66
2021/08/21 06:42:10;;;;;;;41.63;23.83;;;;;;;17.50;85.52;101947.84;5031458;28;20092;-64
2021/08/21 06:44:35;;;;;;;42.63;25.25;;;;;;;17.64;84.65;101965.81;5031764;28;20041;-66
2021/08/21 06:47:00;;;;;;;39.53;23.35;;;;;;;17.71;84.41;101952.09;5018221;28;20116;-66
2021/08/21 06:49:26;;;;;;;39.97;23.05;;;;;;;17.77;83.97;101951.75;5017198;28;20532;-66
2021/08/21 06:51:51;;;;;;;38.55;23.45;;;;;;;17.84;83.30;101953.13;5031081;28;20453;-65
2021/08/21 06:54:16;;;;;;;36.60;21.08;;;;;;;17.82;83.28;101960.38;5031435;28;20536;-65
2021/08/21 06:56:42;;;;;;;35.60;21.33;;;;;;;17.73;83.79;101951.03;5030267;28;20122;-64
2021/08/21 06:59:07;;;;;;;37.15;21.65;;;;;;;17.67;84.18;101954.06;5032063;28;20356;-65
2021/08/21 07:01:34;;;;;;;37.30;22.65;;;;;;;17.65;84.08;101950.63;5029433;28;20017;-64
2021/08/21 07:03:59;;;;;;;39.17;22.30;;;;;;;17.58;84.57;101955.47;5030809;28;20034;-66
2021/08/21 07:06:25;;;;;;;42.13;23.45;;;;;;;17.66;85.25;101952.34;5021581;28;20030;-66
2021/08/21 07:08:50;;;;;;;37.95;22.80;;;;;;;17.83;85.59;101949.56;5022183;28;20021;-67
2021/08/21 07:11:15;;;;;;;38.97;22.08;;;;;;;18.08;84.15;101945.50;5031320;28;20029;-67
2021/08/21 07:13:40;;;;;;;35.88;21.90;;;;;;;18.32;83.66;101951.19;5031102;28;20386;-67
2021/08/21 07:16:06;;;;;;;35.28;21.80;;;;;;;18.57;83.09;101952.41;5035603;28;20425;-66
2021/08/21 07:18:31;;;;;;;34.97;21.02;;;;;;;18.73;81.60;101946.09;5037911;28;20383;-66
2021/08/21 07:20:56;;;;;;;33.70;21.27;;;;;;;18.92;80.72;101948.53;5030794;28;20071;-66
2021/08/21 07:23:22;;;;;;;32.45;19.98;;;;;;;19.06;80.15;101948.50;5030668;28;20410;-64
2021/08/21 07:25:47;;;;;;;32.70;20.55;;;;;;;19.25;79.35;101942.84;5031539;28;20437;-66
2021/08/21 07:28:12;;;;;;;26.67;17.23;;;;;;;19.46;78.61;101948.66;5030666;28;20418;-67
2021/08/21 07:30:38;;;;;;;33.10;18.88;;;;;;;19.57;78.16;101945.25;5031014;28;20419;-66
2021/08/21 07:33:03;;;;;;;28.92;18.05;;;;;;;19.71;76.13;101935.44;5030526;28;20037;-66
2021/08/21 07:35:29;;;;;;;28.02;17.33;;;;;;;19.87;77.19;101938.84;5029723;28;20080;-66
2021/08/21 07:37:54;;;;;;;27.20;16.65;;;;;;;20.03;75.47;101941.38;5029784;28;20025;-64
2021/08/21 07:40:19;;;;;;;24.90;15.90;;;;;;;20.19;74.94;101934.94;5028026;28;20029;-65
2021/08/21 07:42:45;;;;;;;24.33;15.50;;;;;;;20.29;74.33;101933.34;5029669;28;20087;-66
2021/08/21 07:45:11;;;;;;;23.17;15.05;;;;;;;20.42;73.82;101930.66;5029623;28;20095;-66
2021/08/21 07:47:36;;;;;;;23.50;16.10;;;;;;;20.40;73.36;101935.31;5029303;28;20083;-66
2021/08/21 07:50:02;;;;;;;22.75;14.43;;;;;;;20.39;73.15;101931.75;5029250;28;20037;-66
2021/08/21 07:52:27;;;;;;;20.02;14.05;;;;;;;20.38;73.46;101930.00;5029795;28;20021;-65
2021/08/21 07:54:53;;;;;;;23.52;15.02;;;;;;;20.34;73.51;101931.19;5035185;28;20070;-65
2021/08/21 07:57:19;;;;;;;22.45;14.70;;;;;;;20.32;73.47;101935.84;5031384;28;20074;-66
2021/08/21 07:59:44;;;;;;;23.05;15.05;;;;;;;20.25;72.87;101929.16;5029878;28;20029;-66
2021/08/21 08:02:09;;;;;;;22.08;14.40;;;;;;;20.28;73.49;101939.69;5029835;28;20029;-66
2021/08/21 08:04:35;;;;;;;17.23;12.27;;;;;;;20.23;72.98;101936.44;5030878;28;20029;-65
2021/08/21 08:07:00;;;;;;;21.60;13.13;;;;;;;20.28;72.61;101926.25;5029784;28;20167;-66
2021/08/21 08:09:28;;;;;;;18.00;11.77;;;;;;;20.31;72.02;101934.13;5029962;28;20022;-66
2021/08/21 08:11:53;;;;;;;22.10;12.98;;;;;;;20.37;72.82;101933.69;5031297;28;20025;-64
2021/08/21 08:14:19;;;;;;;20.23;12.20;;;;;;;20.54;71.87;101929.81;5030790;28;20121;-66
2021/08/21 08:16:44;;;;;;;16.60;11.57;;;;;;;20.80;71.27;101929.84;5011332;28;20490;-66
2021/08/21 08:19:09;;;;;;;17.85;11.73;;;;;;;21.06;69.84;101928.00;5009533;28;20037;-66
2021/08/21 08:21:35;;;;;;;17.20;11.45;;;;;;;21.27;68.11;101936.31;5026318;28;20052;-65
2021/08/21 08:24:00;;;;;;;15.48;11.68;;;;;;;21.33;66.64;101943.13;5046694;28;20033;-66
2021/08/21 08:26:25;;;;;;;17.38;11.40;;;;;;;21.44;68.04;101936.94;5036058;28;20325;-65
2021/08/21 08:28:51;;;;;;;15.95;12.18;;;;;;;21.68;66.24;101934.28;5041246;28;20095;-66
2021/08/21 08:31:16;;;;;;;18.30;11.70;;;;;;;21.95;64.70;101935.00;5048550;28;20473;-66
2021/08/21 08:33:42;;;;;;;16.23;10.95;;;;;;;22.18;64.16;101933.25;5037934;28;20030;-66
2021/08/21 08:36:08;;;;;;;15.05;11.20;;;;;;;22.43;63.77;101937.66;5036600;28;20037;-64
2021/08/21 08:38:33;;;;;;;17.65;11.88;;;;;;;22.62;62.73;101944.28;5042350;28;20055;-65
2021/08/21 08:41:00;;;;;;;14.85;11.25;;;;;;;22.79;62.10;101932.13;5038758;28;20033;-66
2021/08/21 08:43:27;;;;;;;17.25;11.52;;;;;;;22.65;63.24;101946.72;5033977;28;20045;-66
2021/08/21 08:45:52;;;;;;;16.52;11.30;;;;;;;22.65;63.22;101935.94;5044138;28;20076;-64
2021/08/21 08:48:18;;;;;;;15.63;11.20;;;;;;;22.70;63.95;101942.72;5030473;28;20038;-66
2021/08/21 08:50:43;;;;;;;14.80;10.93;;;;;;;22.74;62.95;101943.31;5045059;28;20029;-66
2021/08/21 08:53:09;;;;;;;14.38;11.23;;;;;;;22.72;63.11;101942.56;5038687;28;20048;-65
2021/08/21 08:55:34;;;;;;;14.93;11.32;;;;;;;22.64;63.73;101943.19;5042744;28;20029;-67
2021/08/21 08:58:00;;;;;;;16.25;11.98;;;;;;;22.65;63.15;101941.34;5048064;28;20029;-65
2021/08/21 09:00:27;;;;;;;17.25;10.63;;;;;;;22.49;63.43;101945.25;5045840;28;20452;-65
2021/08/21 09:02:56;;;;;;;14.60;10.77;;;;;;;22.50;63.24;101940.72;5035278;28;20028;-63
2021/08/21 09:05:24;;;;;;;14.77;9.98;;;;;;;22.56;63.73;101951.03;5027298;28;20049;-65
2021/08/21 09:07:53;;;;;;;16.27;10.98;;;;;;;22.61;63.34;101947.97;5028907;28;20028;-64
2021/08/21 09:10:26;;;;;;;14.07;10.23;;;;;;;22.66;63.43;101948.44;5033677;28;20017;-65
2021/08/21 09:13:15;;;;;;;15.77;8.70;;;;;;;22.97;61.72;101946.88;5029310;28;20044;-65
2021/08/21 09:15:42;;;;;;;13.60;9.35;;;;;;;23.34;61.41;101943.94;5030393;28;20022;-66
2021/08/21 09:18:13;;;;;;;13.43;9.45;;;;;;;23.52;58.83;101938.84;5029971;28;20053;-67
2021/08/21 09:20:49;;;;;;;16.63;10.27;;;;;;;23.68;61.11;101945.69;5036544;28;20131;-66
2021/08/21 09:23:23;;;;;;;12.57;8.30;;;;;;;24.31;57.59;101931.41;5049290;28;20094;-67
2021/08/21 09:26:04;;;;;;;14.23;9.10;;;;;;;25.08;55.67;101932.81;5045710;28;20061;-66
2021/08/21 09:28:31;;;;;;;13.43;8.48;;;;;;;25.36;53.77;101935.78;5008662;28;20191;-66
2021/08/21 09:31:02;;;;;;;13.02;9.18;;;;;;;26.15;51.60;101926.69;5027060;28;20233;-66
2021/08/21 09:33:27;;;;;;;19.08;8.45;;;;;;;26.59;50.79;101923.44;5045752;28;20041;-67
2021/08/21 09:35:53;;;;;;;10.57;7.13;;;;;;;27.15;49.83;101926.25;5043393;28;20425;-66
2021/08/21 09:38:22;;;;;;;10.43;7.35;;;;;;;27.51;49.53;101920.00;5041364;28;20033;-66
2021/08/21 09:40:47;;;;;;;9.60;6.68;;;;;;;27.88;47.03;101925.31;5047695;28;20431;-65
2021/08/21 09:43:21;;;;;;;10.75;7.28;;;;;;;28.33;46.23;101919.91;5040847;28;20108;-67
2021/08/21 09:45:46;;;;;;;10.57;6.40;;;;;;;28.60;43.56;101916.97;5029466;28;20021;-66
2021/08/21 09:48:11;;;;;;;9.65;7.05;;;;;;;28.81;44.95;101910.28;5029640;28;20060;-65
2021/08/21 09:50:39;;;;;;;10.50;7.10;;;;;;;29.00;43.64;101914.63;5028326;28;20124;-64
2021/08/21 09:53:10;;;;;;;8.80;6.32;;;;;;;28.80;44.20;101915.91;5035489;28;20037;-66
2021/08/21 09:55:36;;;;;;;10.88;6.70;;;;;;;28.41;43.50;101911.78;5047775;28;20025;-66
2021/08/21 09:58:09;;;;;;;8.10;5.85;;;;;;;28.78;43.38;101914.19;5044571;28;20037;-66
2021/08/21 10:00:36;;;;;;;9.25;6.65;;;;;;;29.42;42.75;101911.03;5048537;28;20025;-68
2021/08/21 10:03:05;;;;;;;10.27;5.65;;;;;;;29.34;41.53;101905.56;5039317;28;20144;-65
2021/08/21 10:05:31;;;;;;;10.00;5.43;;;;;;;28.68;44.18;101913.47;5028057;28;20018;-65
2021/08/21 10:08:00;;;;;;;9.80;5.80;;;;;;;28.05;46.69;101907.25;5028640;28;20101;-66
2021/08/21 10:10:33;;;;;;;9.82;6.07;;;;;;;28.23;45.00;101912.66;5029070;28;20111;-66
2021/08/21 10:13:08;;;;;;;9.65;6.20;;;;;;;28.24;46.33;101916.25;5035838;28;20033;-65
2021/08/21 10:15:36;;;;;;;13.82;6.57;;;;;;;28.53;46.33;101905.03;5045981;28;20048;-66
2021/08/21 10:18:02;;;;;;;11.13;7.18;;;;;;;28.50;43.98;101905.34;5052716;28;20068;-66
2021/08/21 10:20:28;;;;;;;12.00;6.63;;;;;;;27.91;46.60;101905.94;5041394;28;20429;-66
2021/08/21 10:22:53;;;;;;;9.27;6.40;;;;;;;27.61;46.36;101904.47;5033151;28;20483;-65
2021/08/21 10:25:19;;;;;;;10.73;6.22;;;;;;;27.43;45.34;101907.19;5041255;28;20444;-66
2021/08/21 10:28:11;;;;;;;10.35;5.43;;;;;;;27.19;45.62;101919.50;5035028;28;20092;-66
2021/08/21 10:30:45;;;;;;;9.75;5.28;;;;;;;26.64;46.79;101913.00;5038910;28;20048;-68
2021/08/21 10:33:14;;;;;;;9.48;6.18;;;;;;;26.28;48.75;101906.50;5040446;28;20065;-66
2021/08/21 10:35:50;;;;;;;8.43;5.50;;;;;;;26.41;48.53;101907.06;5049654;28;20127;-67
2021/08/21 10:38:35;;;;;;;8.80;5.60;;;;;;;26.71;48.28;101909.69;5043335;28;20060;-66
2021/08/21 10:41:09;;;;;;;8.18;4.97;;;;;;;27.18;46.20;101909.63;5048466;28;20039;-67
2021/08/21 10:43:51;;;;;;;10.57;5.13;;;;;;;27.84;47.01;101912.16;5032232;28;20052;-66
2021/08/21 10:46:28;;;;;;;8.40;4.18;;;;;;;28.34;42.60;101902.53;5051291;28;20047;-67
2021/08/21 10:48:54;;;;;;;7.32;4.25;;;;;;;28.41;41.64;101906.31;5051216;28;20029;-65
2021/08/21 10:51:31;;;;;;;5.97;4.28;;;;;;;28.28;41.72;101901.31;5049783;28;20107;-66
2021/08/21 10:53:58;;;;;;;7.30;4.07;;;;;;;28.10;42.21;101904.06;5037411;28;20064;-65
2021/08/21 10:56:50;;;;;;;8.90;4.88;;;;;;;27.45;43.57;101907.91;5035711;28;20116;-65
2021/08/21 10:59:38;;;;;;;9.65;5.38;;;;;;;27.03;43.57;101897.53;5042074;28;20051;-67
2021/08/21 11:02:28;;;;;;;7.03;4.72;;;;;;;27.04;44.49;101902.81;5049511;28;20029;-65
2021/08/21 11:04:55;;;;;;;9.80;5.80;;;;;;;26.93;45.34;101901.19;5047517;28;20178;-65
2021/08/21 11:07:29;;;;;;;8.68;5.60;;;;;;;27.42;44.70;101889.19;5044049;28;20091;-66
2021/08/21 11:10:13;;;;;;;9.73;5.28;;;;;;;27.94;43.35;101886.56;5030922;28;20426;-66
2021/08/21 11:12:39;;;;;;;10.50;7.13;;;;;;;27.76;42.85;101889.31;5030409;28;20021;-65